createdAt,value
2023-01-31T00:00:14.284Z,1015.42
2023-01-31T00:00:54.863Z,1015.36
2023-01-31T00:01:35.361Z,1015.4
2023-01-31T00:02:16.887Z,1015.36
2023-01-31T00:02:58.203Z,1015.31
2023-01-31T00:03:38.806Z,1015.46
2023-01-31T00:04:19.294Z,1015.46
2023-01-31T00:04:59.871Z,1015.41
2023-01-31T00:05:40.403Z,1015.46
2023-01-31T00:06:20.944Z,1015.43
2023-01-31T00:07:01.452Z,1015.39
2023-01-31T00:07:41.976Z,1015.41
2023-01-31T00:08:22.515Z,1015.41
2023-01-31T00:09:03.150Z,1015.42
2023-01-31T00:09:43.881Z,1015.4
2023-01-31T00:10:24.186Z,1015.41
2023-01-31T00:11:04.653Z,1015.4
2023-01-31T00:11:45.182Z,1015.38
2023-01-31T00:12:25.769Z,1015.39
2023-01-31T00:13:06.836Z,1015.38
2023-01-31T00:13:47.364Z,1015.43
2023-01-31T00:14:27.900Z,1015.4
2023-01-31T00:15:08.422Z,1015.42
2023-01-31T00:15:48.996Z,1015.42
2023-01-31T00:16:29.511Z,1015.45
2023-01-31T00:17:10.048Z,1015.43
2023-01-31T00:17:50.555Z,1015.47
2023-01-31T00:18:31.073Z,1015.5
2023-01-31T00:19:11.642Z,1015.48
2023-01-31T00:19:52.174Z,1015.41
2023-01-31T00:20:32.751Z,1015.48
2023-01-31T00:21:13.317Z,1015.46
2023-01-31T00:21:53.928Z,1015.5
2023-01-31T00:22:34.869Z,1015.5
2023-01-31T00:23:15.030Z,1015.49
2023-01-31T00:23:55.584Z,1015.44
2023-01-31T00:24:36.123Z,1015.43
2023-01-31T00:25:16.780Z,1015.42
2023-01-31T00:25:57.214Z,1015.49
2023-01-31T00:26:38.104Z,1015.46
2023-01-31T00:27:18.234Z,1015.49
2023-01-31T00:27:58.846Z,1015.46
2023-01-31T00:28:39.525Z,1015.46
2023-01-31T00:29:19.910Z,1015.41
2023-01-31T00:30:00.466Z,1015.47
2023-01-31T00:30:41.620Z,1015.42
2023-01-31T00:31:22.239Z,1015.41
2023-01-31T00:32:02.799Z,1015.45
2023-01-31T00:32:43.249Z,1015.42
2023-01-31T00:33:23.825Z,1015.46
2023-01-31T00:34:04.354Z,1015.41
2023-01-31T00:34:44.930Z,1015.44
2023-01-31T00:35:25.459Z,1015.4
2023-01-31T00:36:06.894Z,1015.41
2023-01-31T00:36:47.465Z,1015.44
2023-01-31T00:37:28.033Z,1015.46
2023-01-31T00:38:08.600Z,1015.39
2023-01-31T00:38:49.153Z,1015.49
2023-01-31T00:39:29.706Z,1015.39
2023-01-31T00:41:42.803Z,1015.34
2023-01-31T00:42:23.356Z,1015.37
2023-01-31T00:43:03.975Z,1015.32
2023-01-31T00:43:44.481Z,1015.3
2023-01-31T00:44:25.009Z,1015.3
2023-01-31T00:45:05.487Z,1015.32
2023-01-31T00:45:46.081Z,1015.33
2023-01-31T00:47:59.123Z,1015.33
2023-01-31T00:48:40.588Z,1015.36
2023-01-31T00:49:22.031Z,1015.33
2023-01-31T00:50:02.521Z,1015.33
2023-01-31T00:50:43.073Z,1015.27
2023-01-31T00:51:24.972Z,1015.26
2023-01-31T00:52:04.223Z,1015.29
2023-01-31T00:52:44.775Z,1015.24
2023-01-31T00:53:25.201Z,1015.25
2023-01-31T00:54:05.726Z,1015.25
2023-01-31T00:54:46.307Z,1015.26
2023-01-31T00:55:26.825Z,1015.29
2023-01-31T00:56:07.858Z,1015.29
2023-01-31T00:56:48.445Z,1015.28
2023-01-31T00:57:29.594Z,1015.27
2023-01-31T00:58:10.176Z,1015.27
2023-01-31T00:58:50.708Z,1015.27
2023-01-31T00:59:31.283Z,1015.25
2023-01-31T01:01:44.399Z,1015.25
2023-01-31T01:02:24.854Z,1015.27
2023-01-31T01:03:05.380Z,1015.3
2023-01-31T01:03:45.912Z,1015.34
2023-01-31T01:04:26.433Z,1015.29
2023-01-31T01:05:06.948Z,1015.31
2023-01-31T01:05:47.498Z,1015.26
2023-01-31T01:06:28.056Z,1015.28
2023-01-31T01:07:09.590Z,1015.28
2023-01-31T01:07:50.157Z,1015.27
2023-01-31T01:08:30.701Z,1015.3
2023-01-31T01:09:11.274Z,1015.24
2023-01-31T01:09:51.858Z,1015.25
2023-01-31T01:10:32.377Z,1015.25
2023-01-31T01:11:12.904Z,1015.27
2023-01-31T01:11:54.065Z,1015.31
2023-01-31T01:14:07.355Z,1015.3
2023-01-31T01:14:47.909Z,1015.3
2023-01-31T01:15:28.447Z,1015.24
2023-01-31T01:16:08.980Z,1015.3
2023-01-31T01:18:37.770Z,1015.27
2023-01-31T01:19:18.366Z,1015.31
2023-01-31T01:19:58.910Z,1015.27
2023-01-31T01:20:39.423Z,1015.29
2023-01-31T01:21:20.678Z,1015.23
2023-01-31T01:22:01.195Z,1015.27
2023-01-31T01:22:41.789Z,1015.28
2023-01-31T01:23:22.336Z,1015.19
2023-01-31T01:24:02.884Z,1015.26
2023-01-31T01:24:43.409Z,1015.22
2023-01-31T01:25:23.959Z,1015.3
2023-01-31T01:26:04.540Z,1015.29
2023-01-31T01:26:45.124Z,1015.33
2023-01-31T01:27:25.615Z,1015.3
2023-01-31T01:28:06.166Z,1015.33
2023-01-31T01:30:04.166Z,1015.32
2023-01-31T01:30:44.671Z,1015.33
2023-01-31T01:31:25.387Z,1015.34
2023-01-31T01:32:05.881Z,1015.35
2023-01-31T01:32:46.316Z,1015.34
2023-01-31T01:33:27.501Z,1015.34
2023-01-31T01:34:08.597Z,1015.32
2023-01-31T01:37:25.063Z,1015.31
2023-01-31T01:38:05.632Z,1015.33
2023-01-31T01:38:46.206Z,1015.29
2023-01-31T01:39:26.751Z,1015.27
2023-01-31T01:40:07.300Z,1015.24
2023-01-31T01:40:47.840Z,1015.25
2023-01-31T01:41:28.695Z,1015.25
2023-01-31T01:42:08.953Z,1015.24
2023-01-31T01:42:49.507Z,1015.34
2023-01-31T01:43:30.045Z,1015.26
2023-01-31T01:44:10.577Z,1015.23
2023-01-31T01:44:51.157Z,1015.3
2023-01-31T01:45:31.754Z,1015.31
2023-01-31T01:46:12.287Z,1015.28
2023-01-31T01:46:52.812Z,1015.26
2023-01-31T01:47:33.362Z,1015.25
2023-01-31T01:48:13.906Z,1015.3
2023-01-31T01:48:54.464Z,1015.27
2023-01-31T01:49:35.072Z,1015.26
2023-01-31T01:50:15.514Z,1015.26
2023-01-31T01:50:56.069Z,1015.27
2023-01-31T01:51:36.664Z,1015.25
2023-01-31T01:52:17.173Z,1015.27
2023-01-31T01:52:57.717Z,1015.28
2023-01-31T01:53:38.264Z,1015.34
2023-01-31T01:54:18.768Z,1015.3
2023-01-31T01:54:59.316Z,1015.3
2023-01-31T01:55:39.836Z,1015.28
2023-01-31T01:56:20.383Z,1015.31
2023-01-31T01:58:18.384Z,1015.27
2023-01-31T01:58:58.889Z,1015.32
2023-01-31T01:59:39.435Z,1015.32
2023-01-31T02:00:20.014Z,1015.27
2023-01-31T02:01:00.609Z,1015.26
2023-01-31T02:01:41.131Z,1015.29
2023-01-31T02:02:23.433Z,1015.28
2023-01-31T02:03:03.933Z,1015.25
2023-01-31T02:03:44.468Z,1015.24
2023-01-31T02:04:24.947Z,1015.29
2023-01-31T02:05:05.498Z,1015.27
2023-01-31T02:05:46.051Z,1015.28
2023-01-31T02:06:26.912Z,1015.27
2023-01-31T02:07:07.189Z,1015.28
2023-01-31T02:07:47.728Z,1015.3
2023-01-31T02:08:28.282Z,1015.28
2023-01-31T02:09:08.896Z,1015.24
2023-01-31T02:09:49.548Z,1015.23
2023-01-31T02:10:30.141Z,1015.27
2023-01-31T02:11:10.619Z,1015.28
2023-01-31T02:11:51.126Z,1015.33
2023-01-31T02:12:31.638Z,1015.35
2023-01-31T02:13:12.128Z,1015.36
2023-01-31T02:13:52.685Z,1015.44
2023-01-31T02:14:33.347Z,1015.39
2023-01-31T02:15:13.897Z,1015.41
2023-01-31T02:15:54.452Z,1015.39
2023-01-31T02:16:35.163Z,1015.39
2023-01-31T02:17:15.549Z,1015.39
2023-01-31T02:17:56.097Z,1015.41
2023-01-31T02:18:36.961Z,1015.37
2023-01-31T02:19:17.202Z,1015.35
2023-01-31T02:19:58.281Z,1015.4
2023-01-31T02:22:11.297Z,1015.34
2023-01-31T02:22:51.832Z,1015.41
2023-01-31T02:23:32.391Z,1015.42
2023-01-31T02:24:12.907Z,1015.46
2023-01-31T02:24:53.453Z,1015.5
2023-01-31T02:25:34.019Z,1015.5
2023-01-31T02:26:14.625Z,1015.47
2023-01-31T02:26:55.131Z,1015.48
2023-01-31T02:27:35.692Z,1015.47
2023-01-31T02:28:16.209Z,1015.5
2023-01-31T02:28:56.748Z,1015.47
2023-01-31T02:29:37.291Z,1015.48
2023-01-31T02:31:35.282Z,1015.55
2023-01-31T02:32:15.775Z,1015.58
2023-01-31T02:32:57.234Z,1015.55
2023-01-31T02:33:37.774Z,1015.59
2023-01-31T02:34:19.223Z,1015.62
2023-01-31T02:34:59.741Z,1015.63
2023-01-31T02:35:40.290Z,1015.62
2023-01-31T02:36:20.787Z,1015.63
2023-01-31T02:37:01.302Z,1015.57
2023-01-31T02:37:41.804Z,1015.61
2023-01-31T02:38:22.316Z,1015.64
2023-01-31T02:39:02.838Z,1015.66
2023-01-31T02:39:44.015Z,1015.64
2023-01-31T02:41:41.951Z,1015.63
2023-01-31T02:42:22.735Z,1015.66
2023-01-31T02:43:02.992Z,1015.65
2023-01-31T02:43:43.568Z,1015.68
2023-01-31T02:44:24.093Z,1015.67
2023-01-31T02:45:04.629Z,1015.63
2023-01-31T02:45:45.222Z,1015.66
2023-01-31T02:46:25.687Z,1015.68
2023-01-31T02:47:06.327Z,1015.65
2023-01-31T02:47:46.948Z,1015.63
2023-01-31T02:48:27.419Z,1015.61
2023-01-31T02:49:07.938Z,1015.61
2023-01-31T02:49:48.456Z,1015.59
2023-01-31T02:50:28.974Z,1015.62
2023-01-31T02:51:09.527Z,1015.6
2023-01-31T02:53:07.497Z,1015.58
2023-01-31T02:53:48.038Z,1015.59
2023-01-31T02:54:28.570Z,1015.54
2023-01-31T02:55:09.113Z,1015.55
2023-01-31T02:55:49.712Z,1015.56
2023-01-31T02:56:30.213Z,1015.54
2023-01-31T02:58:44.168Z,1015.59
2023-01-31T02:59:26.665Z,1015.54
2023-01-31T03:00:07.950Z,1015.55
2023-01-31T03:00:54.431Z,1015.61
2023-01-31T03:02:52.876Z,1015.55
2023-01-31T03:03:33.371Z,1015.53
2023-01-31T03:04:13.907Z,1015.52
2023-01-31T03:04:54.495Z,1015.61
2023-01-31T03:05:35.033Z,1015.57
2023-01-31T03:06:15.594Z,1015.58
2023-01-31T03:06:56.086Z,1015.57
2023-01-31T03:07:36.687Z,1015.57
2023-01-31T03:08:17.221Z,1015.58
2023-01-31T03:08:57.754Z,1015.57
2023-01-31T03:09:38.283Z,1015.59
2023-01-31T03:10:18.838Z,1015.56
2023-01-31T03:12:18.112Z,1015.55
2023-01-31T03:12:58.071Z,1015.53
2023-01-31T03:13:38.572Z,1015.57
2023-01-31T03:14:19.326Z,1015.61
2023-01-31T03:14:59.673Z,1015.57
2023-01-31T03:15:40.187Z,1015.59
2023-01-31T03:16:21.336Z,1015.6
2023-01-31T03:17:01.305Z,1015.54
2023-01-31T03:17:41.816Z,1015.52
2023-01-31T03:18:23.235Z,1015.53
2023-01-31T03:19:03.734Z,1015.48
2023-01-31T03:19:44.235Z,1015.49
2023-01-31T03:20:24.791Z,1015.5
2023-01-31T03:21:05.346Z,1015.53
2023-01-31T03:21:45.879Z,1015.51
2023-01-31T03:22:26.433Z,1015.57
2023-01-31T03:23:06.950Z,1015.54
2023-01-31T03:23:47.491Z,1015.57
2023-01-31T03:24:27.996Z,1015.56
2023-01-31T03:25:08.534Z,1015.58
2023-01-31T03:25:49.788Z,1015.59
2023-01-31T03:26:30.354Z,1015.6
2023-01-31T03:27:10.821Z,1015.59
2023-01-31T03:27:51.357Z,1015.58
2023-01-31T03:28:31.941Z,1015.58
2023-01-31T03:29:12.397Z,1015.61
2023-01-31T03:29:52.903Z,1015.54
2023-01-31T03:30:34.475Z,1015.54
2023-01-31T03:31:14.905Z,1015.55
2023-01-31T03:31:55.417Z,1015.63
2023-01-31T03:32:36.139Z,1015.57
2023-01-31T03:33:16.335Z,1015.56
2023-01-31T03:33:56.984Z,1015.55
2023-01-31T03:34:37.488Z,1015.58
2023-01-31T03:35:18.358Z,1015.58
2023-01-31T03:35:58.537Z,1015.58
2023-01-31T03:36:39.039Z,1015.58
2023-01-31T03:37:19.589Z,1015.52
2023-01-31T03:38:00.128Z,1015.61
2023-01-31T03:38:40.676Z,1015.6
2023-01-31T03:39:21.228Z,1015.6
2023-01-31T03:40:01.784Z,1015.54
2023-01-31T03:40:42.298Z,1015.63
2023-01-31T03:41:22.943Z,1015.65
2023-01-31T03:42:03.461Z,1015.63
2023-01-31T03:42:43.981Z,1015.61
2023-01-31T03:43:26.289Z,1015.64
2023-01-31T03:44:06.790Z,1015.66
2023-01-31T03:44:47.326Z,1015.63
2023-01-31T03:45:27.827Z,1015.67
2023-01-31T03:46:08.345Z,1015.7
2023-01-31T03:46:48.894Z,1015.75
2023-01-31T03:47:29.454Z,1015.71
2023-01-31T03:48:09.972Z,1015.76
2023-01-31T03:48:50.476Z,1015.76
2023-01-31T03:49:31.021Z,1015.79
2023-01-31T03:50:11.571Z,1015.8
2023-01-31T03:50:52.092Z,1015.78
2023-01-31T03:51:32.641Z,1015.79
2023-01-31T03:52:13.627Z,1015.82
2023-01-31T03:52:53.683Z,1015.84
2023-01-31T03:53:34.201Z,1015.8
2023-01-31T03:54:16.008Z,1015.87
2023-01-31T03:54:55.948Z,1015.85
2023-01-31T03:55:36.507Z,1015.92
2023-01-31T03:56:17.017Z,1015.87
2023-01-31T03:56:57.579Z,1015.91
2023-01-31T03:57:38.063Z,1015.83
2023-01-31T03:58:18.665Z,1015.87
2023-01-31T03:58:59.163Z,1015.84
2023-01-31T03:59:39.710Z,1015.87
2023-01-31T04:00:20.237Z,1015.85
2023-01-31T04:01:00.747Z,1015.85
2023-01-31T04:01:41.280Z,1015.86
2023-01-31T04:02:21.770Z,1015.8
2023-01-31T04:03:02.365Z,1015.78
2023-01-31T04:03:42.856Z,1015.88
2023-01-31T04:04:23.351Z,1015.86
2023-01-31T04:05:03.911Z,1015.85
2023-01-31T04:05:44.400Z,1015.84
2023-01-31T04:06:25.623Z,1015.83
2023-01-31T04:07:06.132Z,1015.83
2023-01-31T04:07:46.656Z,1015.84
2023-01-31T04:08:27.181Z,1015.85
2023-01-31T04:09:07.713Z,1015.85
2023-01-31T04:09:48.265Z,1015.79
2023-01-31T04:10:28.784Z,1015.81
2023-01-31T04:11:09.359Z,1015.89
2023-01-31T04:11:49.890Z,1015.9
2023-01-31T04:12:30.416Z,1015.94
2023-01-31T04:13:11.419Z,1015.93
2023-01-31T04:13:51.432Z,1015.96
2023-01-31T04:14:32.118Z,1015.96
2023-01-31T04:15:12.587Z,1015.96
2023-01-31T04:15:53.137Z,1015.95
2023-01-31T04:16:33.643Z,1015.98
2023-01-31T04:17:14.389Z,1015.93
2023-01-31T04:17:54.815Z,1015.94
2023-01-31T04:18:37.683Z,1015.89
2023-01-31T04:19:15.869Z,1015.89
2023-01-31T04:19:56.384Z,1015.9
2023-01-31T04:20:36.976Z,1015.88
2023-01-31T04:21:17.446Z,1015.88
2023-01-31T04:21:57.974Z,1015.92
2023-01-31T04:22:38.518Z,1015.92
2023-01-31T04:23:19.051Z,1015.92
2023-01-31T04:23:59.596Z,1015.94
2023-01-31T04:24:40.126Z,1016.03
2023-01-31T04:25:21.054Z,1015.97
2023-01-31T04:26:01.179Z,1016.03
2023-01-31T04:26:41.750Z,1016.03
2023-01-31T04:27:22.287Z,1016
2023-01-31T04:28:02.827Z,1015.96
2023-01-31T04:28:43.351Z,1015.88
2023-01-31T04:29:24.757Z,1015.94
2023-01-31T04:30:05.277Z,1015.91
2023-01-31T04:30:46.648Z,1015.88
2023-01-31T04:31:27.238Z,1015.91
2023-01-31T04:32:07.720Z,1015.86
2023-01-31T04:32:48.236Z,1015.89
2023-01-31T04:33:28.785Z,1015.81
2023-01-31T04:34:09.433Z,1015.83
2023-01-31T04:34:49.823Z,1015.86
2023-01-31T04:37:03.839Z,1015.84
2023-01-31T04:37:45.131Z,1015.82
2023-01-31T04:38:25.683Z,1015.85
2023-01-31T04:39:06.195Z,1015.84
2023-01-31T04:39:46.702Z,1015.86
2023-01-31T04:40:27.252Z,1015.82
2023-01-31T04:41:08.297Z,1015.83
2023-01-31T04:41:48.445Z,1015.82
2023-01-31T04:42:28.950Z,1015.81
2023-01-31T04:43:09.460Z,1015.83
2023-01-31T04:43:50.033Z,1015.85
2023-01-31T04:44:30.572Z,1015.84
2023-01-31T04:45:11.087Z,1015.81
2023-01-31T04:45:51.602Z,1015.81
2023-01-31T04:46:32.203Z,1015.78
2023-01-31T04:47:13.410Z,1015.77
2023-01-31T04:47:53.924Z,1015.78
2023-01-31T04:48:34.458Z,1015.76
2023-01-31T04:49:14.966Z,1015.73
2023-01-31T04:49:55.501Z,1015.77
2023-01-31T04:50:36.569Z,1015.79
2023-01-31T04:51:16.577Z,1015.81
2023-01-31T04:51:57.106Z,1015.8
2023-01-31T04:52:37.651Z,1015.81
2023-01-31T04:53:18.157Z,1015.79
2023-01-31T04:53:58.721Z,1015.76
2023-01-31T04:54:39.226Z,1015.75
2023-01-31T04:55:19.947Z,1015.81
2023-01-31T04:56:00.258Z,1015.83
2023-01-31T04:56:40.779Z,1015.83
2023-01-31T04:57:21.316Z,1015.82
2023-01-31T04:58:01.848Z,1015.85
2023-01-31T04:58:42.361Z,1015.87
2023-01-31T04:59:22.980Z,1015.86
2023-01-31T05:00:03.538Z,1015.88
2023-01-31T05:00:44.076Z,1015.84
2023-01-31T05:01:24.570Z,1015.86
2023-01-31T05:02:05.084Z,1015.84
2023-01-31T05:02:45.656Z,1015.87
2023-01-31T05:03:26.119Z,1015.88
2023-01-31T05:04:07.026Z,1015.87
2023-01-31T05:04:48.031Z,1015.88
2023-01-31T05:05:28.544Z,1015.89
2023-01-31T05:06:09.043Z,1015.82
2023-01-31T05:06:49.579Z,1015.79
2023-01-31T05:07:30.133Z,1015.79
2023-01-31T05:08:10.655Z,1015.81
2023-01-31T05:08:51.150Z,1015.83
2023-01-31T05:09:32.784Z,1015.82
2023-01-31T05:10:13.022Z,1015.78
2023-01-31T05:10:53.557Z,1015.76
2023-01-31T05:11:34.074Z,1015.71
2023-01-31T05:12:14.576Z,1015.75
2023-01-31T05:12:55.819Z,1015.74
2023-01-31T05:13:36.449Z,1015.7
2023-01-31T05:14:16.838Z,1015.75
2023-01-31T05:14:57.446Z,1015.73
2023-01-31T05:15:37.997Z,1015.76
2023-01-31T05:16:18.623Z,1015.81
2023-01-31T05:16:59.144Z,1015.78
2023-01-31T05:17:39.696Z,1015.83
2023-01-31T05:18:20.248Z,1015.83
2023-01-31T05:19:00.796Z,1015.79
2023-01-31T05:19:41.350Z,1015.79
2023-01-31T05:20:21.876Z,1015.8
2023-01-31T05:21:02.383Z,1015.79
2023-01-31T05:21:42.934Z,1015.79
2023-01-31T05:22:23.455Z,1015.82
2023-01-31T05:23:03.998Z,1015.79
2023-01-31T05:23:44.574Z,1015.84
2023-01-31T05:24:25.048Z,1015.81
2023-01-31T05:25:05.889Z,1015.81
2023-01-31T05:25:46.102Z,1015.83
2023-01-31T05:26:26.655Z,1015.83
2023-01-31T05:27:07.134Z,1015.85
2023-01-31T05:27:47.653Z,1015.83
2023-01-31T05:28:28.208Z,1015.84
2023-01-31T05:29:08.703Z,1015.81
2023-01-31T05:29:49.231Z,1015.8
2023-01-31T05:30:29.752Z,1015.81
2023-01-31T05:31:10.411Z,1015.87
2023-01-31T05:31:50.842Z,1015.82
2023-01-31T05:32:31.383Z,1015.79
2023-01-31T05:33:11.859Z,1015.85
2023-01-31T05:33:53.354Z,1015.81
2023-01-31T05:34:33.881Z,1015.75
2023-01-31T05:35:14.431Z,1015.77
2023-01-31T05:35:54.981Z,1015.75
2023-01-31T05:36:35.791Z,1015.77
2023-01-31T05:37:16.001Z,1015.75
2023-01-31T05:37:56.496Z,1015.78
2023-01-31T05:38:37.111Z,1015.73
2023-01-31T05:39:18.205Z,1015.76
2023-01-31T05:39:58.689Z,1015.83
2023-01-31T05:40:39.217Z,1015.78
2023-01-31T05:41:19.728Z,1015.79
2023-01-31T05:42:00.241Z,1015.8
2023-01-31T05:42:40.791Z,1015.76
2023-01-31T05:43:21.356Z,1015.79
2023-01-31T05:44:01.869Z,1015.78
2023-01-31T05:44:42.383Z,1015.75
2023-01-31T05:45:23.169Z,1015.77
2023-01-31T05:46:03.788Z,1015.76
2023-01-31T05:46:43.954Z,1015.78
2023-01-31T05:47:24.441Z,1015.81
2023-01-31T05:48:04.998Z,1015.84
2023-01-31T05:48:45.517Z,1015.88
2023-01-31T05:49:26.025Z,1015.86
2023-01-31T05:50:06.661Z,1015.84
2023-01-31T05:50:47.116Z,1015.85
2023-01-31T05:51:27.646Z,1015.82
2023-01-31T05:52:08.168Z,1015.91
2023-01-31T05:52:48.670Z,1015.93
2023-01-31T05:53:29.200Z,1015.99
2023-01-31T05:54:09.719Z,1015.9
2023-01-31T05:54:50.259Z,1015.89
2023-01-31T05:55:31.218Z,1015.92
2023-01-31T05:56:11.320Z,1015.99
2023-01-31T05:56:51.846Z,1016
2023-01-31T05:57:32.428Z,1016
2023-01-31T05:58:13.456Z,1015.95
2023-01-31T05:58:53.950Z,1015.96
2023-01-31T05:59:34.494Z,1015.93
2023-01-31T06:00:15.040Z,1015.96
2023-01-31T06:00:55.563Z,1016
2023-01-31T06:01:36.085Z,1016
2023-01-31T06:02:16.682Z,1016.02
2023-01-31T06:02:57.150Z,1016.04
2023-01-31T06:03:38.630Z,1016.05
2023-01-31T06:04:19.026Z,1016.06
2023-01-31T06:04:59.539Z,1015.98
2023-01-31T06:05:40.061Z,1016.05
2023-01-31T06:06:20.557Z,1016.05
2023-01-31T06:07:01.468Z,1016.07
2023-01-31T06:07:42.189Z,1016.1
2023-01-31T06:08:22.746Z,1016.1
2023-01-31T06:09:03.297Z,1016.14
2023-01-31T06:09:43.848Z,1016.09
2023-01-31T06:10:24.420Z,1016.11
2023-01-31T06:11:04.948Z,1016.08
2023-01-31T06:13:18.046Z,1016.09
2023-01-31T06:13:58.638Z,1016.1
2023-01-31T06:14:39.709Z,1016.04
2023-01-31T06:15:21.336Z,1016.11
2023-01-31T06:16:01.544Z,1016.1
2023-01-31T06:16:42.088Z,1016.07
2023-01-31T06:17:22.626Z,1016.02
2023-01-31T06:18:03.209Z,1016.05
2023-01-31T06:18:43.747Z,1016.05
2023-01-31T06:19:24.280Z,1016.11
2023-01-31T06:20:05.757Z,1016.03
2023-01-31T06:20:46.269Z,1016.03
2023-01-31T06:21:26.781Z,1016.03
2023-01-31T06:22:07.321Z,1016.04
2023-01-31T06:22:47.857Z,1016.07
2023-01-31T06:23:29.128Z,1016.02
2023-01-31T06:24:09.649Z,1016.06
2023-01-31T06:24:50.165Z,1016.05
2023-01-31T06:25:30.754Z,1016
2023-01-31T06:26:11.260Z,1015.99
2023-01-31T06:26:51.795Z,1016
2023-01-31T06:27:32.304Z,1016
2023-01-31T06:28:12.806Z,1016.03
2023-01-31T06:28:54.218Z,1016.06
2023-01-31T06:29:34.760Z,1016.05
2023-01-31T06:30:15.305Z,1016.1
2023-01-31T06:30:55.926Z,1016.06
2023-01-31T06:31:36.423Z,1016.12
2023-01-31T06:32:16.798Z,1016.1
2023-01-31T06:32:57.583Z,1016.11
2023-01-31T06:33:45.848Z,1016.1
2023-01-31T06:34:18.349Z,1016.12
2023-01-31T06:34:58.881Z,1016.14
2023-01-31T06:35:39.927Z,1016.14
2023-01-31T06:36:20.634Z,1016.12
2023-01-31T06:37:01.170Z,1016.15
2023-01-31T06:37:41.691Z,1016.11
2023-01-31T06:38:22.227Z,1016.09
2023-01-31T06:39:02.743Z,1016.11
2023-01-31T06:39:43.265Z,1016.1
2023-01-31T06:40:23.787Z,1016.04
2023-01-31T06:41:04.364Z,1016.05
2023-01-31T06:41:44.881Z,1016.02
2023-01-31T06:42:25.369Z,1016.04
2023-01-31T06:43:07.448Z,1016.08
2023-01-31T06:43:47.957Z,1016.07
2023-01-31T06:45:40.919Z,1016.12
2023-01-31T06:46:21.981Z,1016.11
2023-01-31T06:47:03.094Z,1016.07
2023-01-31T06:47:43.534Z,1016.09
2023-01-31T06:50:01.692Z,1016.15
2023-01-31T06:50:42.232Z,1016.14
2023-01-31T06:51:22.788Z,1016.18
2023-01-31T06:52:03.943Z,1016.14
2023-01-31T06:52:45.063Z,1016.22
2023-01-31T06:54:43.774Z,1016.18
2023-01-31T06:55:24.271Z,1016.22
2023-01-31T06:56:04.824Z,1016.19
2023-01-31T06:56:45.405Z,1016.23
2023-01-31T06:58:59.977Z,1016.26
2023-01-31T06:59:40.492Z,1016.24
2023-01-31T07:00:20.995Z,1016.25
2023-01-31T07:01:01.522Z,1016.3
2023-01-31T07:01:42.072Z,1016.25
2023-01-31T07:02:22.526Z,1016.23
2023-01-31T07:03:03.079Z,1016.27
2023-01-31T07:03:43.600Z,1016.22
2023-01-31T07:04:24.212Z,1016.22
2023-01-31T07:05:04.797Z,1016.25
2023-01-31T07:05:45.203Z,1016.18
2023-01-31T07:06:26.549Z,1016.17
2023-01-31T07:07:07.053Z,1016.19
2023-01-31T07:07:47.558Z,1016.2
2023-01-31T07:08:28.102Z,1016.15
2023-01-31T07:09:08.600Z,1016.14
2023-01-31T07:09:49.109Z,1016.21
2023-01-31T07:10:30.262Z,1016.17
2023-01-31T07:12:23.013Z,1016.16
2023-01-31T07:13:03.493Z,1016.2
2023-01-31T07:13:44.045Z,1016.15
2023-01-31T07:14:24.558Z,1016.12
2023-01-31T07:15:05.084Z,1016.15
2023-01-31T07:15:45.629Z,1016.14
2023-01-31T07:16:26.197Z,1016.07
2023-01-31T07:17:06.639Z,1016.1
2023-01-31T07:17:47.195Z,1016.11
2023-01-31T07:18:27.704Z,1016.09
2023-01-31T07:19:08.220Z,1016.06
2023-01-31T07:19:48.787Z,1016.05
2023-01-31T07:20:29.443Z,1016.03
2023-01-31T07:21:09.850Z,1016.07
2023-01-31T07:21:50.417Z,1016.06
2023-01-31T07:22:32.247Z,1016.07
2023-01-31T07:23:12.256Z,1016.1
2023-01-31T07:23:52.823Z,1016.1
2023-01-31T07:24:33.514Z,1016.05
2023-01-31T07:25:13.860Z,1016.1
2023-01-31T07:25:54.465Z,1016.09
2023-01-31T07:26:35.159Z,1016.18
2023-01-31T07:27:15.550Z,1016.11
2023-01-31T07:27:56.167Z,1016.1
2023-01-31T07:28:36.571Z,1016.14
2023-01-31T07:30:50.529Z,1016.09
2023-01-31T07:31:30.197Z,1016.06
2023-01-31T07:32:10.696Z,1016.18
2023-01-31T07:32:51.344Z,1016.18
2023-01-31T07:33:32.235Z,1016.11
2023-01-31T07:34:12.284Z,1016.16
2023-01-31T07:34:52.797Z,1016.18
2023-01-31T07:35:33.446Z,1016.24
2023-01-31T07:36:13.888Z,1016.21
2023-01-31T07:36:55.225Z,1016.21
2023-01-31T07:37:35.752Z,1016.23
2023-01-31T07:38:16.270Z,1016.22
2023-01-31T07:38:56.825Z,1016.3
2023-01-31T07:39:37.386Z,1016.31
2023-01-31T07:40:17.949Z,1016.29
2023-01-31T07:40:58.467Z,1016.33
2023-01-31T07:41:39.023Z,1016.31
2023-01-31T07:42:19.515Z,1016.34
2023-01-31T07:44:48.738Z,1016.34
2023-01-31T07:45:30.109Z,1016.33
2023-01-31T07:46:12.483Z,1016.33
2023-01-31T07:46:53.144Z,1016.42
2023-01-31T07:49:06.236Z,1016.3
2023-01-31T07:49:46.820Z,1016.33
2023-01-31T07:50:27.383Z,1016.31
2023-01-31T07:51:07.922Z,1016.33
2023-01-31T07:51:49.435Z,1016.35
2023-01-31T07:52:29.951Z,1016.31
2023-01-31T07:53:10.495Z,1016.29
2023-01-31T07:55:03.347Z,1016.18
2023-01-31T07:55:43.863Z,1016.16
2023-01-31T07:56:25.114Z,1016.17
2023-01-31T07:57:05.633Z,1016.17
2023-01-31T07:57:46.164Z,1016.23
2023-01-31T07:58:26.694Z,1016.19
2023-01-31T07:59:07.232Z,1016.17
2023-01-31T07:59:48.232Z,1016.17
2023-01-31T08:00:28.891Z,1016.14
2023-01-31T08:01:09.435Z,1016.15
2023-01-31T08:01:50.891Z,1016.27
2023-01-31T08:02:30.660Z,1016.18
2023-01-31T08:03:10.940Z,1016.11
2023-01-31T08:03:51.435Z,1016.14
2023-01-31T08:04:32.157Z,1016.21
2023-01-31T08:05:12.592Z,1016.18
2023-01-31T08:05:53.040Z,1016.14
2023-01-31T08:06:33.541Z,1016.12
2023-01-31T08:07:14.052Z,1016.11
2023-01-31T08:07:54.584Z,1016.16
2023-01-31T08:08:35.083Z,1016.14
2023-01-31T08:09:15.634Z,1016.16
2023-01-31T08:09:56.183Z,1016.19
2023-01-31T08:10:36.739Z,1016.18
2023-01-31T08:11:18.100Z,1016.2
2023-01-31T08:11:58.671Z,1016.16
2023-01-31T08:12:39.203Z,1016.17
2023-01-31T08:13:19.721Z,1016.14
2023-01-31T08:14:00.252Z,1016.15
2023-01-31T08:14:40.771Z,1016.19
2023-01-31T08:15:21.675Z,1016.2
2023-01-31T08:16:01.865Z,1016.2
2023-01-31T08:16:42.400Z,1016.19
2023-01-31T08:17:22.944Z,1016.19
2023-01-31T08:18:06.176Z,1016.21
2023-01-31T08:18:43.929Z,1016.2
2023-01-31T08:19:24.477Z,1016.22
2023-01-31T08:20:05.029Z,1016.26
2023-01-31T08:20:46.063Z,1016.23
2023-01-31T08:21:26.139Z,1016.21
2023-01-31T08:23:39.166Z,1016.25
2023-01-31T08:24:19.693Z,1016.22
2023-01-31T08:25:01.207Z,1016.25
2023-01-31T08:25:41.690Z,1016.27
2023-01-31T08:26:22.199Z,1016.22
2023-01-31T08:27:02.725Z,1016.22
2023-01-31T08:27:43.287Z,1016.29
2023-01-31T08:28:23.780Z,1016.29
2023-01-31T08:29:05.207Z,1016.29
2023-01-31T08:29:46.206Z,1016.33
2023-01-31T08:30:26.468Z,1016.31
2023-01-31T08:31:09.189Z,1016.3
2023-01-31T08:31:52.008Z,1016.33
2023-01-31T08:32:30.649Z,1016.4
2023-01-31T08:33:11.112Z,1016.32
2023-01-31T08:33:51.628Z,1016.32
2023-01-31T08:34:32.769Z,1016.35
2023-01-31T08:35:12.644Z,1016.35
2023-01-31T08:35:53.158Z,1016.33
2023-01-31T08:36:34.012Z,1016.35
2023-01-31T08:37:15.787Z,1016.31
2023-01-31T08:38:01.021Z,1016.36
2023-01-31T08:38:35.359Z,1016.45
2023-01-31T08:39:15.821Z,1016.37
2023-01-31T08:39:56.346Z,1016.38
2023-01-31T08:40:36.843Z,1016.37
2023-01-31T08:41:17.369Z,1016.44
2023-01-31T08:41:57.966Z,1016.42
2023-01-31T08:42:38.499Z,1016.42
2023-01-31T08:43:19.062Z,1016.4
2023-01-31T08:43:59.604Z,1016.43
2023-01-31T08:44:40.136Z,1016.39
2023-01-31T08:45:21.038Z,1016.39
2023-01-31T08:46:01.158Z,1016.41
2023-01-31T08:46:42.264Z,1016.43
2023-01-31T08:47:22.204Z,1016.54
2023-01-31T08:48:02.710Z,1016.46
2023-01-31T08:48:43.258Z,1016.43
2023-01-31T08:49:23.757Z,1016.47
2023-01-31T08:50:04.302Z,1016.43
2023-01-31T08:50:44.796Z,1016.45
2023-01-31T08:51:25.358Z,1016.47
2023-01-31T08:52:06.444Z,1016.44
2023-01-31T08:52:46.952Z,1016.46
2023-01-31T08:53:27.466Z,1016.42